createdAt,value
2023-04-18T00:00:39.607Z,5.80
2023-04-18T00:01:42.084Z,6.07
2023-04-18T00:02:44.134Z,6.57
2023-04-18T00:03:47.218Z,5.85
2023-04-18T00:04:50.447Z,6.05
2023-04-18T00:05:52.122Z,6.10
2023-04-18T00:06:53.780Z,5.80
2023-04-18T00:07:56.353Z,5.60
2023-04-18T00:08:57.941Z,5.82
2023-04-18T00:09:59.542Z,6.00
2023-04-18T00:11:01.033Z,6.70
2023-04-18T00:12:04.896Z,7.18
2023-04-18T00:13:07.475Z,6.13
2023-04-18T00:14:10.423Z,7.53
2023-04-18T00:16:13.961Z,6.45
2023-04-18T00:17:16.091Z,6.10
2023-04-18T00:18:17.630Z,6.93
2023-04-18T00:19:20.115Z,6.90
2023-04-18T00:20:21.648Z,5.75
2023-04-18T00:21:23.220Z,6.63
2023-04-18T00:22:25.323Z,6.13
2023-04-18T00:23:28.063Z,5.55
2023-04-18T00:24:29.755Z,6.53
2023-04-18T00:25:31.569Z,5.93
2023-04-18T00:26:33.081Z,6.43
2023-04-18T00:27:34.664Z,6.18
2023-04-18T00:28:36.169Z,5.97
2023-04-18T00:29:38.022Z,6.07
2023-04-18T00:30:39.573Z,6.03
2023-04-18T00:31:41.145Z,6.03
2023-04-18T00:32:42.708Z,6.32
2023-04-18T00:33:44.252Z,6.30
2023-04-18T00:34:46.182Z,5.82
2023-04-18T00:35:47.671Z,6.13
2023-04-18T00:36:49.193Z,5.93
2023-04-18T00:37:51.017Z,6.30
2023-04-18T00:38:52.567Z,6.68
2023-04-18T00:39:54.409Z,6.20
2023-04-18T00:40:55.933Z,6.43
2023-04-18T00:41:57.507Z,6.25
2023-04-18T00:42:59.088Z,6.50
2023-04-18T00:44:00.731Z,6.30
2023-04-18T00:45:02.580Z,6.32
2023-04-18T00:46:04.138Z,6.53
2023-04-18T00:47:05.958Z,6.07
2023-04-18T00:48:07.544Z,5.72
2023-04-18T00:49:09.158Z,6.75
2023-04-18T00:50:11.268Z,6.40
2023-04-18T00:51:12.770Z,7.15
2023-04-18T00:52:14.293Z,6.60
2023-04-18T00:53:16.003Z,6.53
2023-04-18T00:54:18.200Z,6.63
2023-04-18T00:55:19.706Z,6.00
2023-04-18T00:56:23.734Z,6.40
2023-04-18T00:57:25.281Z,5.93
2023-04-18T00:58:26.895Z,6.53
2023-04-18T00:59:28.763Z,5.93
2023-04-18T01:00:30.914Z,6.22
2023-04-18T01:01:33.701Z,6.53
2023-04-18T01:02:35.753Z,5.72
2023-04-18T01:03:37.641Z,6.38
2023-04-18T01:04:39.805Z,5.97
2023-04-18T01:05:41.491Z,6.10
2023-04-18T01:06:44.122Z,6.30
2023-04-18T01:07:45.692Z,6.07
2023-04-18T01:08:47.264Z,6.13
2023-04-18T01:09:49.637Z,5.88
2023-04-18T01:10:51.269Z,5.75
2023-04-18T01:11:52.730Z,6.03
2023-04-18T01:13:15.251Z,6.10
2023-04-18T01:14:17.132Z,5.47
2023-04-18T01:15:18.756Z,5.40
2023-04-18T01:16:20.818Z,5.93
2023-04-18T01:17:23.278Z,6.15
2023-04-18T01:18:25.409Z,5.82
2023-04-18T01:19:27.347Z,6.07
2023-04-18T01:20:28.982Z,5.72
2023-04-18T01:21:31.303Z,6.00
2023-04-18T01:22:33.055Z,5.82
2023-04-18T01:23:34.584Z,5.35
2023-04-18T01:24:36.573Z,5.35
2023-04-18T01:25:38.826Z,5.70
2023-04-18T01:26:40.738Z,5.90
2023-04-18T01:27:42.217Z,5.55
2023-04-18T01:28:43.723Z,5.38
2023-04-18T01:29:45.953Z,6.68
2023-04-18T01:30:47.445Z,5.95
2023-04-18T01:31:49.321Z,5.70
2023-04-18T01:32:50.840Z,6.00
2023-04-18T01:33:52.387Z,5.68
2023-04-18T01:34:54.206Z,5.78
2023-04-18T01:35:55.703Z,6.15
2023-04-18T01:36:57.333Z,5.78
2023-04-18T01:37:59.059Z,5.38
2023-04-18T01:39:00.773Z,5.85
2023-04-18T01:40:02.700Z,5.60
2023-04-18T01:41:04.218Z,6.70
2023-04-18T01:42:05.767Z,5.72
2023-04-18T01:43:07.258Z,5.60
2023-04-18T01:44:08.768Z,5.60
2023-04-18T01:45:11.316Z,5.18
2023-04-18T01:46:12.849Z,6.13
2023-04-18T01:47:14.361Z,6.22
2023-04-18T01:48:15.878Z,5.55
2023-04-18T01:49:17.342Z,5.97
2023-04-18T01:50:18.973Z,6.18
2023-04-18T01:51:20.450Z,5.68
2023-04-18T01:52:21.978Z,5.93
2023-04-18T01:53:24.116Z,5.38
2023-04-18T01:54:25.793Z,5.35
2023-04-18T01:55:27.312Z,5.80
2023-04-18T01:56:28.890Z,5.60
2023-04-18T01:57:30.847Z,5.60
2023-04-18T01:58:32.366Z,6.22
2023-04-18T01:59:34.228Z,6.00
2023-04-18T02:00:35.791Z,6.63
2023-04-18T02:01:37.352Z,5.82
2023-04-18T02:02:38.999Z,5.97
2023-04-18T02:03:40.950Z,5.97
2023-04-18T02:04:42.963Z,6.20
2023-04-18T02:05:44.426Z,6.30
2023-04-18T02:06:45.989Z,5.55
2023-04-18T02:07:49.170Z,6.38
2023-04-18T02:08:50.687Z,5.88
2023-04-18T02:09:52.557Z,5.22
2023-04-18T02:10:54.057Z,6.25
2023-04-18T02:11:59.253Z,5.60
2023-04-18T02:13:00.739Z,5.72
2023-04-18T02:14:02.238Z,6.13
2023-04-18T02:15:04.480Z,6.00
2023-04-18T02:16:06.533Z,6.00
2023-04-18T02:17:08.082Z,5.95
2023-04-18T02:18:09.735Z,5.75
2023-04-18T02:19:11.670Z,6.22
2023-04-18T02:20:13.671Z,5.40
2023-04-18T02:21:15.209Z,5.70
2023-04-18T02:22:18.152Z,5.47
2023-04-18T02:24:21.142Z,5.20
2023-04-18T02:25:24.554Z,5.57
2023-04-18T02:26:26.129Z,5.40
2023-04-18T02:27:27.815Z,5.82
2023-04-18T02:28:29.307Z,5.70
2023-04-18T02:29:30.829Z,5.47
2023-04-18T02:30:32.384Z,6.35
2023-04-18T02:31:33.951Z,5.95
2023-04-18T02:32:35.539Z,6.50
2023-04-18T02:33:37.187Z,6.32
2023-04-18T02:34:39.436Z,5.43
2023-04-18T02:35:41.114Z,5.63
2023-04-18T02:36:43.079Z,6.00
2023-04-18T02:37:44.578Z,5.82
2023-04-18T02:38:46.114Z,5.80
2023-04-18T02:39:47.695Z,5.82
2023-04-18T02:40:49.192Z,6.03
2023-04-18T02:41:50.687Z,6.45
2023-04-18T02:42:52.251Z,6.10
2023-04-18T02:43:54.825Z,5.93
2023-04-18T02:44:56.590Z,5.85
2023-04-18T02:45:58.230Z,6.13
2023-04-18T02:46:59.779Z,5.55
2023-04-18T02:48:01.378Z,6.20
2023-04-18T02:49:03.023Z,6.57
2023-04-18T02:50:04.892Z,6.15
2023-04-18T02:51:06.906Z,6.20
2023-04-18T02:52:08.444Z,6.38
2023-04-18T02:53:09.973Z,6.13
2023-04-18T02:54:11.653Z,6.10
2023-04-18T02:55:13.416Z,5.78
2023-04-18T02:56:17.003Z,5.70
2023-04-18T02:57:18.610Z,6.50
2023-04-18T02:58:20.207Z,6.00
2023-04-18T02:59:21.723Z,5.78
2023-04-18T03:00:23.624Z,6.18
2023-04-18T03:01:25.229Z,6.47
2023-04-18T03:02:26.902Z,6.65
2023-04-18T03:03:28.474Z,6.13
2023-04-18T03:04:30.066Z,5.75
2023-04-18T03:05:31.622Z,5.90
2023-04-18T03:06:33.193Z,6.72
2023-04-18T03:07:34.742Z,6.35
2023-04-18T03:08:36.303Z,6.70
2023-04-18T03:09:37.827Z,5.88
2023-04-18T03:10:39.940Z,6.18
2023-04-18T03:11:41.675Z,5.65
2023-04-18T03:12:43.286Z,6.03
2023-04-18T03:13:44.805Z,6.97
2023-04-18T03:14:46.343Z,6.50
2023-04-18T03:15:47.922Z,6.32
2023-04-18T03:16:49.467Z,5.68
2023-04-18T03:17:51.056Z,6.43
2023-04-18T03:18:52.598Z,5.93
2023-04-18T03:19:54.318Z,5.80
2023-04-18T03:20:55.924Z,6.20
2023-04-18T03:21:57.464Z,6.03
2023-04-18T03:22:59.018Z,5.65
2023-04-18T03:24:00.676Z,6.50
2023-04-18T03:25:02.191Z,6.10
2023-04-18T03:26:05.827Z,6.07
2023-04-18T03:27:07.429Z,6.50
2023-04-18T03:28:08.995Z,5.88
2023-04-18T03:29:10.540Z,5.90
2023-04-18T03:30:12.152Z,6.45
2023-04-18T03:31:13.849Z,5.78
2023-04-18T03:32:15.570Z,6.38
2023-04-18T03:33:17.198Z,5.90
2023-04-18T03:34:18.759Z,6.25
2023-04-18T03:35:20.845Z,6.20
2023-04-18T03:36:25.681Z,6.40
2023-04-18T03:37:27.341Z,5.72
2023-04-18T03:38:28.898Z,6.15
2023-04-18T03:39:30.562Z,6.20
2023-04-18T03:40:32.263Z,6.10
2023-04-18T03:41:34.154Z,6.57
2023-04-18T03:42:36.242Z,5.80
2023-04-18T03:43:37.906Z,6.32
2023-04-18T03:44:39.418Z,6.05
2023-04-18T03:45:41.140Z,6.05
2023-04-18T03:46:43.090Z,5.60
2023-04-18T03:47:44.675Z,5.85
2023-04-18T03:48:46.184Z,6.05
2023-04-18T03:49:47.693Z,5.88
2023-04-18T03:50:49.825Z,6.68
2023-04-18T03:51:52.331Z,6.65
2023-04-18T03:52:53.958Z,6.75
2023-04-18T03:53:55.559Z,6.20
2023-04-18T03:54:57.061Z,6.07
2023-04-18T03:55:58.578Z,5.75
2023-04-18T03:57:00.446Z,6.15
2023-04-18T03:58:02.110Z,6.50
2023-04-18T03:59:03.659Z,6.10
2023-04-18T04:00:07.987Z,5.88
2023-04-18T04:01:09.584Z,5.68
2023-04-18T04:02:11.218Z,6.03
2023-04-18T04:03:12.911Z,6.25
2023-04-18T04:04:15.670Z,5.90
2023-04-18T04:06:18.894Z,6.47
2023-04-18T04:07:20.738Z,5.57
2023-04-18T04:08:22.247Z,6.13
2023-04-18T04:09:23.779Z,6.70
2023-04-18T04:10:25.564Z,6.32
2023-04-18T04:11:27.192Z,6.72
2023-04-18T04:12:29.119Z,6.28
2023-04-18T04:13:30.712Z,6.50
2023-04-18T04:14:32.675Z,5.82
2023-04-18T04:15:34.249Z,6.78
2023-04-18T04:16:35.887Z,6.55
2023-04-18T04:17:37.501Z,6.03
2023-04-18T04:18:39.082Z,6.47
2023-04-18T04:19:40.590Z,6.20
2023-04-18T04:20:42.103Z,6.35
2023-04-18T04:21:43.629Z,5.80
2023-04-18T04:22:45.176Z,6.32
2023-04-18T04:23:46.745Z,6.35
2023-04-18T04:24:48.311Z,6.90
2023-04-18T04:25:49.814Z,7.00
2023-04-18T04:26:51.429Z,6.70
2023-04-18T04:27:53.715Z,6.40
2023-04-18T04:28:55.249Z,6.35
2023-04-18T04:29:56.793Z,6.10
2023-04-18T04:30:58.333Z,6.70
2023-04-18T04:32:00.077Z,6.55
2023-04-18T04:33:01.994Z,6.68
2023-04-18T04:34:04.954Z,7.00
2023-04-18T04:36:10.050Z,6.45
2023-04-18T04:37:14.017Z,7.47
2023-04-18T04:38:16.001Z,6.28
2023-04-18T04:39:17.537Z,6.97
2023-04-18T04:40:19.215Z,7.13
2023-04-18T04:41:22.364Z,7.22
2023-04-18T04:42:25.203Z,6.47
2023-04-18T04:43:28.760Z,6.88
2023-04-18T04:44:31.333Z,7.50
2023-04-18T04:45:33.271Z,6.72
2023-04-18T04:46:34.852Z,7.90
2023-04-18T04:47:36.738Z,7.65
2023-04-18T04:48:38.386Z,7.22
2023-04-18T04:49:39.882Z,7.15
2023-04-18T04:50:41.816Z,6.75
2023-04-18T04:51:44.347Z,7.97
2023-04-18T04:52:45.960Z,6.85
2023-04-18T04:53:47.543Z,6.97
2023-04-18T04:54:50.646Z,6.85
2023-04-18T04:55:52.207Z,7.57
2023-04-18T04:56:53.752Z,7.00
2023-04-18T04:57:56.089Z,7.68
2023-04-18T04:58:57.624Z,7.00
2023-04-18T04:59:59.188Z,6.97
2023-04-18T05:01:00.848Z,6.82
2023-04-18T05:02:02.515Z,7.45
2023-04-18T05:03:04.357Z,7.47
2023-04-18T05:04:06.281Z,7.22
2023-04-18T05:05:08.205Z,7.63
2023-04-18T05:06:09.741Z,6.57
2023-04-18T05:07:11.275Z,7.38
2023-04-18T05:08:12.818Z,6.85
2023-04-18T05:09:14.346Z,7.60
2023-04-18T05:10:15.926Z,6.78
2023-04-18T05:11:17.521Z,7.28
2023-04-18T05:12:19.041Z,6.88
2023-04-18T05:13:20.656Z,7.65
2023-04-18T05:14:22.702Z,7.50
2023-04-18T05:15:24.868Z,8.80
2023-04-18T05:16:26.527Z,7.93
2023-04-18T05:17:28.124Z,7.45
2023-04-18T05:18:29.715Z,7.28
2023-04-18T05:19:31.251Z,18.27
2023-04-18T05:20:32.764Z,13.45
2023-04-18T05:21:34.459Z,13.27
2023-04-18T05:22:36.158Z,18.13
2023-04-18T05:23:37.706Z,16.85
2023-04-18T05:24:39.557Z,15.57
2023-04-18T05:25:41.097Z,15.27
2023-04-18T05:26:43.053Z,9.73
2023-04-18T05:27:45.422Z,8.43
2023-04-18T05:28:46.969Z,8.27
2023-04-18T05:29:50.252Z,7.38
2023-04-18T05:30:52.030Z,7.55
2023-04-18T05:31:53.732Z,7.90
2023-04-18T05:32:55.293Z,7.85
2023-04-18T05:33:56.930Z,7.53
2023-04-18T05:34:58.468Z,8.32
2023-04-18T05:35:59.983Z,8.73
2023-04-18T05:37:01.534Z,7.97
2023-04-18T05:38:03.258Z,8.18
2023-04-18T05:39:05.104Z,7.55
2023-04-18T05:40:09.048Z,8.57
2023-04-18T05:41:10.592Z,7.88
2023-04-18T05:42:12.302Z,8.05
2023-04-18T05:43:13.866Z,7.90
2023-04-18T05:44:16.139Z,7.25
2023-04-18T05:45:17.733Z,7.85
2023-04-18T05:46:19.309Z,8.25
2023-04-18T05:47:21.228Z,8.30
2023-04-18T05:48:23.390Z,7.85
2023-04-18T05:49:24.916Z,9.38
2023-04-18T05:50:26.509Z,7.30
2023-04-18T05:51:28.668Z,8.05
2023-04-18T05:52:31.296Z,7.75
2023-04-18T05:53:32.840Z,8.25
2023-04-18T05:54:34.364Z,8.23
2023-04-18T05:55:36.035Z,8.15
2023-04-18T05:56:37.546Z,9.23
2023-04-18T05:57:40.562Z,7.38
2023-04-18T05:58:42.101Z,7.72
2023-04-18T05:59:43.645Z,7.70
2023-04-18T06:00:45.339Z,9.50
2023-04-18T06:01:46.875Z,8.30
2023-04-18T06:02:49.736Z,8.23
2023-04-18T06:04:53.463Z,7.00
2023-04-18T06:05:55.277Z,8.13
2023-04-18T06:06:56.831Z,7.82
2023-04-18T06:07:58.389Z,8.00
2023-04-18T06:08:59.889Z,7.68
2023-04-18T06:10:01.451Z,8.55
2023-04-18T06:11:03.186Z,8.07
2023-04-18T06:12:04.831Z,7.93
2023-04-18T06:13:06.369Z,8.30
2023-04-18T06:14:07.974Z,8.15
2023-04-18T06:15:10.319Z,7.82
2023-04-18T06:16:11.963Z,8.48
2023-04-18T06:17:13.987Z,8.25
2023-04-18T06:18:15.529Z,8.18
2023-04-18T06:19:17.051Z,7.88
2023-04-18T06:20:18.778Z,9.35
2023-04-18T06:21:20.890Z,8.25
2023-04-18T06:22:22.423Z,8.02
2023-04-18T06:23:23.942Z,8.40
2023-04-18T06:24:25.835Z,8.40
2023-04-18T06:25:27.523Z,9.20
2023-04-18T06:26:30.525Z,36.50
2023-04-18T06:28:33.772Z,16.95
2023-04-18T06:29:36.210Z,10.57
2023-04-18T06:30:39.076Z,9.40
2023-04-18T06:31:42.135Z,8.77
2023-04-18T06:32:43.989Z,8.60
2023-04-18T06:33:45.651Z,8.30
2023-04-18T06:34:47.214Z,9.50
2023-04-18T06:35:48.791Z,8.85
2023-04-18T06:36:50.445Z,8.75
2023-04-18T06:37:52.100Z,8.30
2023-04-18T06:38:53.646Z,8.65
2023-04-18T06:39:55.181Z,8.63
2023-04-18T06:40:56.809Z,8.48
2023-04-18T06:41:58.336Z,8.40
2023-04-18T06:42:59.902Z,7.30
2023-04-18T06:44:03.421Z,8.55
2023-04-18T06:45:06.608Z,8.65
2023-04-18T06:46:08.176Z,8.80
2023-04-18T06:47:09.775Z,8.10
2023-04-18T06:48:11.297Z,9.27
2023-04-18T06:49:12.788Z,8.45
2023-04-18T06:50:14.489Z,8.82
2023-04-18T06:51:16.219Z,8.00
2023-04-18T06:52:17.716Z,8.55
2023-04-18T06:53:19.265Z,8.23
2023-04-18T06:54:21.028Z,8.07
2023-04-18T06:55:23.204Z,8.27
2023-04-18T06:56:24.729Z,9.05
2023-04-18T06:57:26.342Z,8.35
2023-04-18T06:58:27.931Z,8.60
2023-04-18T06:59:29.449Z,8.95
2023-04-18T07:00:31.096Z,8.10
2023-04-18T07:01:35.520Z,7.63
2023-04-18T07:02:37.878Z,7.70
2023-04-18T07:03:39.719Z,8.43
2023-04-18T07:04:41.545Z,8.25
2023-04-18T07:05:43.548Z,8.45
2023-04-18T07:06:45.065Z,8.10
2023-04-18T07:07:46.633Z,8.07
2023-04-18T07:08:48.186Z,8.00
2023-04-18T07:09:50.140Z,7.65
2023-04-18T07:10:51.747Z,7.70
2023-04-18T07:11:53.252Z,8.25
2023-04-18T07:12:54.806Z,6.97
2023-04-18T07:13:56.569Z,7.70
2023-04-18T07:14:58.162Z,8.13
2023-04-18T07:15:59.813Z,7.90
2023-04-18T07:17:01.804Z,7.18
2023-04-18T07:18:03.574Z,6.28
2023-04-18T07:19:06.640Z,7.80
2023-04-18T07:20:08.877Z,7.13
2023-04-18T07:21:10.490Z,6.57
2023-04-18T07:22:12.074Z,7.18
2023-04-18T07:23:13.612Z,7.15
2023-04-18T07:24:15.440Z,6.55
2023-04-18T07:25:17.390Z,6.93
2023-04-18T07:26:19.077Z,6.82
2023-04-18T07:27:20.666Z,6.65
2023-04-18T07:28:22.218Z,6.88
2023-04-18T07:29:23.787Z,6.78
2023-04-18T07:30:26.382Z,6.90
2023-04-18T07:31:28.752Z,6.13
2023-04-18T07:32:30.401Z,6.35
2023-04-18T07:33:33.973Z,6.10
2023-04-18T07:34:36.157Z,6.63
2023-04-18T07:35:37.750Z,6.93
2023-04-18T07:36:39.470Z,6.57
2023-04-18T07:37:40.982Z,5.75
2023-04-18T07:38:42.624Z,7.30
2023-04-18T07:39:44.141Z,5.53
2023-04-18T07:40:45.793Z,6.03
2023-04-18T07:41:47.337Z,8.98
2023-04-18T07:42:48.895Z,10.15
2023-04-18T07:43:50.488Z,15.75
2023-04-18T07:44:57.089Z,11.63
2023-04-18T07:45:58.705Z,6.78
2023-04-18T07:47:00.310Z,6.80
2023-04-18T07:48:02.494Z,6.03
2023-04-18T07:49:04.504Z,6.50
2023-04-18T07:50:06.589Z,5.80
2023-04-18T07:51:08.455Z,5.85
2023-04-18T07:52:10.054Z,5.82
2023-04-18T07:53:11.653Z,5.68
2023-04-18T07:54:13.256Z,6.30
2023-04-18T07:55:14.925Z,6.18
2023-04-18T07:56:16.474Z,5.18
2023-04-18T07:57:18.043Z,6.00
2023-04-18T07:58:19.636Z,5.43
2023-04-18T07:59:21.222Z,6.32
2023-04-18T08:00:22.745Z,5.78
2023-04-18T08:01:27.028Z,6.35
2023-04-18T08:02:28.787Z,6.07
2023-04-18T08:03:30.768Z,6.43
2023-04-18T08:04:33.015Z,6.25
2023-04-18T08:05:34.973Z,7.03
2023-04-18T08:06:36.899Z,6.47
2023-04-18T08:07:38.419Z,6.28
2023-04-18T08:08:40.131Z,5.85
2023-04-18T08:09:41.774Z,5.10
2023-04-18T08:10:43.310Z,6.50
2023-04-18T08:11:45.094Z,6.05
2023-04-18T08:12:46.603Z,5.80
2023-04-18T08:13:48.094Z,6.28
2023-04-18T08:14:49.595Z,5.78
2023-04-18T08:15:51.193Z,5.82
2023-04-18T08:16:52.800Z,6.25
2023-04-18T08:17:54.767Z,7.00
2023-04-18T08:18:56.682Z,16.48
2023-04-18T08:19:58.212Z,9.15
2023-04-18T08:20:59.764Z,7.20
2023-04-18T08:22:10.646Z,6.68
2023-04-18T08:23:13.298Z,6.13
2023-04-18T08:24:15.024Z,6.40
2023-04-18T08:25:16.794Z,6.05
2023-04-18T08:26:18.543Z,6.35
2023-04-18T08:27:20.055Z,6.28
2023-04-18T08:28:21.562Z,6.00
2023-04-18T08:29:23.130Z,5.88
2023-04-18T08:30:24.713Z,5.82
2023-04-18T08:31:26.460Z,5.35
2023-04-18T08:32:28.154Z,5.68
2023-04-18T08:33:29.759Z,5.72
2023-04-18T08:34:33.407Z,6.22
2023-04-18T08:35:35.761Z,6.45
2023-04-18T08:36:37.266Z,6.03
2023-04-18T08:37:39.123Z,6.03
2023-04-18T08:38:40.756Z,6.70
2023-04-18T08:39:42.312Z,5.70
2023-04-18T08:40:44.253Z,5.57
2023-04-18T08:41:45.891Z,6.20
2023-04-18T08:42:47.456Z,5.68
2023-04-18T08:43:49.245Z,6.07
2023-04-18T08:44:51.425Z,5.72
2023-04-18T08:45:58.401Z,5.38
2023-04-18T08:47:01.550Z,6.22
2023-04-18T08:48:03.781Z,5.07
2023-04-18T08:49:06.259Z,5.22
2023-04-18T08:50:09.256Z,5.80
2023-04-18T08:51:11.326Z,5.18
2023-04-18T08:52:13.941Z,5.72
2023-04-18T08:53:17.803Z,5.72
2023-04-18T08:54:19.746Z,5.45
2023-04-18T08:55:24.386Z,5.97
2023-04-18T08:56:27.245Z,5.57
2023-04-18T08:57:30.133Z,5.25
2023-04-18T08:58:33.676Z,5.20
2023-04-18T08:59:37.979Z,5.75
2023-04-18T09:00:39.595Z,5.18
2023-04-18T09:01:56.679Z,5.05
2023-04-18T09:02:59.121Z,5.93
2023-04-18T09:04:00.851Z,5.15
2023-04-18T09:05:14.341Z,5.28
2023-04-18T09:06:18.984Z,5.40
2023-04-18T09:07:22.546Z,4.82
2023-04-18T09:08:24.460Z,6.32
2023-04-18T09:09:27.694Z,5.95
2023-04-18T09:10:31.165Z,5.68
2023-04-18T09:11:34.466Z,6.10
2023-04-18T09:12:52.226Z,5.20
2023-04-18T09:13:55.990Z,5.45
2023-04-18T09:15:11.120Z,4.63
2023-04-18T09:17:18.365Z,8.50
2023-04-18T09:18:19.977Z,5.15
2023-04-18T09:19:21.858Z,4.85
2023-04-18T09:20:35.505Z,4.78
2023-04-18T09:21:39.111Z,4.20
2023-04-18T09:22:54.287Z,3.90
2023-04-18T09:25:09.775Z,3.95
2023-04-18T09:26:11.312Z,3.90
2023-04-18T09:27:15.652Z,4.05
2023-04-18T09:28:30.515Z,3.33
2023-04-18T09:29:46.724Z,3.70
2023-04-18T09:30:51.760Z,3.92
2023-04-18T09:32:02.354Z,4.15
2023-04-18T09:33:05.638Z,3.83
2023-04-18T09:34:19.791Z,3.78
2023-04-18T09:35:24.768Z,4.03
2023-04-18T09:36:31.414Z,4.18
2023-04-18T09:37:33.081Z,3.88
2023-04-18T09:38:41.241Z,3.65
2023-04-18T09:39:43.851Z,3.83
2023-04-18T09:40:45.425Z,3.97
2023-04-18T09:42:00.051Z,3.60
2023-04-18T09:43:02.013Z,3.63
2023-04-18T09:44:15.660Z,3.83
2023-04-18T09:45:17.474Z,4.60
2023-04-18T09:46:19.485Z,3.65
2023-04-18T09:47:21.126Z,9.70
2023-04-18T09:48:22.745Z,4.20
2023-04-18T09:49:24.377Z,4.93
2023-04-18T09:50:26.042Z,4.18
2023-04-18T09:51:27.586Z,4.45
2023-04-18T09:52:41.556Z,4.22
2023-04-18T09:53:50.428Z,3.78
2023-04-18T09:54:58.239Z,4.05
2023-04-18T09:55:59.764Z,3.65
2023-04-18T09:57:01.798Z,4.00
2023-04-18T09:58:03.747Z,3.92
2023-04-18T09:59:09.086Z,3.80
2023-04-18T10:00:20.441Z,4.03
2023-04-18T10:01:23.192Z,3.53
2023-04-18T10:02:25.081Z,3.70
2023-04-18T10:03:32.717Z,3.67
2023-04-18T10:04:34.421Z,3.53
2023-04-18T10:05:37.339Z,4.00
2023-04-18T10:06:40.028Z,3.83
2023-04-18T10:07:42.028Z,3.72
2023-04-18T10:08:46.295Z,4.05
2023-04-18T10:09:48.038Z,3.88
2023-04-18T10:10:49.556Z,4.05
2023-04-18T10:11:52.160Z,3.63
2023-04-18T10:12:54.822Z,4.00
2023-04-18T10:13:57.083Z,3.72
2023-04-18T10:14:58.610Z,3.97
2023-04-18T10:16:00.198Z,3.97
2023-04-18T10:17:02.271Z,3.72
2023-04-18T10:18:15.667Z,3.50
2023-04-18T10:19:28.095Z,3.90
2023-04-18T10:20:30.606Z,3.60
2023-04-18T10:21:32.154Z,3.33
2023-04-18T10:22:34.021Z,5.68
2023-04-18T10:23:36.598Z,5.43
2023-04-18T10:24:48.454Z,4.82
2023-04-18T10:25:50.521Z,4.03
2023-04-18T10:26:52.349Z,3.72
2023-04-18T10:27:54.777Z,3.80
2023-04-18T10:28:57.640Z,3.70
2023-04-18T10:29:59.164Z,3.45
2023-04-18T10:31:05.629Z,3.67
2023-04-18T10:32:07.449Z,3.88
2023-04-18T10:33:35.800Z,3.47
2023-04-18T10:34:43.719Z,3.85
2023-04-18T10:36:08.707Z,4.05
2023-04-18T10:37:12.776Z,3.75
2023-04-18T10:38:17.344Z,4.10
2023-04-18T10:39:22.843Z,4.45
2023-04-18T10:40:34.208Z,3.50
2023-04-18T10:41:38.340Z,3.33
2023-04-18T10:42:48.493Z,4.07
2023-04-18T10:44:13.390Z,3.70
2023-04-18T10:45:21.089Z,3.65
2023-04-18T10:46:31.937Z,4.28
2023-04-18T10:47:34.513Z,3.80
2023-04-18T10:48:39.155Z,4.18
2023-04-18T10:49:40.783Z,3.33
2023-04-18T10:51:13.972Z,3.45
2023-04-18T10:52:15.679Z,3.67
2023-04-18T10:53:17.217Z,4.03
2023-04-18T10:54:42.146Z,3.80
2023-04-18T10:55:43.654Z,4.05
2023-04-18T10:56:54.771Z,4.00
2023-04-18T10:57:56.834Z,4.57
2023-04-18T10:59:01.183Z,4.00
2023-04-18T11:00:04.289Z,4.18
2023-04-18T11:01:06.025Z,4.55
2023-04-18T11:02:30.270Z,4.00
2023-04-18T11:03:35.374Z,3.75
2023-04-18T11:04:37.819Z,3.95
2023-04-18T11:05:39.630Z,4.43
2023-04-18T11:06:49.450Z,5.28
2023-04-18T11:07:51.198Z,5.47
2023-04-18T11:08:53.282Z,7.05
2023-04-18T11:09:54.883Z,4.97
2023-04-18T11:11:04.145Z,4.75
2023-04-18T11:12:06.522Z,4.15
2023-04-18T11:13:08.380Z,3.83
2023-04-18T11:14:10.001Z,4.70
2023-04-18T11:15:14.290Z,4.22
2023-04-18T11:16:41.972Z,4.75
2023-04-18T11:17:43.798Z,4.90
2023-04-18T11:18:45.555Z,4.72
2023-04-18T11:19:47.472Z,4.30
2023-04-18T11:20:50.216Z,4.15
2023-04-18T11:21:51.806Z,4.30
2023-04-18T11:22:57.523Z,4.30
2023-04-18T11:23:59.174Z,4.53
2023-04-18T11:25:00.908Z,4.40
2023-04-18T11:26:03.422Z,4.65
2023-04-18T11:27:05.160Z,4.20
2023-04-18T11:28:06.736Z,4.32
2023-04-18T11:29:08.254Z,4.25
2023-04-18T11:30:10.332Z,4.45
2023-04-18T11:31:11.850Z,4.63
2023-04-18T11:32:13.471Z,4.70
2023-04-18T11:33:15.185Z,4.40
2023-04-18T11:34:16.799Z,4.47
2023-04-18T11:35:18.344Z,5.40
2023-04-18T11:36:19.841Z,4.90
2023-04-18T11:37:21.685Z,4.85
2023-04-18T11:38:28.042Z,4.43
2023-04-18T11:39:29.607Z,5.28
2023-04-18T11:40:31.169Z,5.63
2023-04-18T11:41:32.696Z,5.43
2023-04-18T11:42:34.931Z,10.57
2023-04-18T11:43:36.678Z,5.95
2023-04-18T11:44:39.982Z,6.13
2023-04-18T11:45:53.666Z,17.25
2023-04-18T11:46:55.392Z,7.10
2023-04-18T11:47:58.340Z,6.22
2023-04-18T11:48:59.956Z,6.10
2023-04-18T11:50:02.856Z,5.45
2023-04-18T11:52:11.426Z,5.35
2023-04-18T11:53:12.954Z,4.75
2023-04-18T11:54:36.527Z,5.40
2023-04-18T11:55:38.058Z,5.53
2023-04-18T11:56:48.602Z,5.32
2023-04-18T11:57:56.578Z,5.47
2023-04-18T11:58:58.110Z,5.30
2023-04-18T12:00:00.878Z,4.90
2023-04-18T12:01:25.610Z,4.85
2023-04-18T12:02:28.559Z,4.97
2023-04-18T12:04:50.036Z,5.15
2023-04-18T12:05:59.173Z,4.90
2023-04-18T12:07:00.946Z,4.70
2023-04-18T12:08:06.367Z,4.70
2023-04-18T12:09:07.872Z,4.72
2023-04-18T12:10:23.460Z,4.75
2023-04-18T12:11:25.089Z,5.00
2023-04-18T12:12:27.019Z,6.50
2023-04-18T12:13:32.114Z,5.22
2023-04-18T12:14:35.677Z,4.88
2023-04-18T12:15:41.038Z,5.05
2023-04-18T12:16:42.624Z,5.50
2023-04-18T12:17:45.240Z,5.22
2023-04-18T12:18:47.258Z,5.40
2023-04-18T12:19:49.900Z,5.60
2023-04-18T12:20:54.264Z,5.00
2023-04-18T12:21:56.793Z,5.47
2023-04-18T12:22:58.495Z,5.32
2023-04-18T12:24:00.588Z,5.13
2023-04-18T12:25:10.454Z,5.47
2023-04-18T12:26:18.153Z,4.70
2023-04-18T12:27:19.646Z,5.78
2023-04-18T12:28:21.204Z,5.85
2023-04-18T12:29:22.773Z,5.28
2023-04-18T12:30:28.947Z,4.97
2023-04-18T12:31:30.577Z,4.60
2023-04-18T12:32:32.137Z,4.55
2023-04-18T12:33:34.171Z,5.03
2023-04-18T12:34:35.889Z,4.95
2023-04-18T12:35:38.632Z,5.10
2023-04-18T12:36:40.439Z,5.43
2023-04-18T12:37:42.058Z,5.50
2023-04-18T12:38:43.622Z,6.32
2023-04-18T12:39:45.187Z,5.18
2023-04-18T12:40:46.833Z,5.80
2023-04-18T12:41:49.773Z,4.90
2023-04-18T12:42:51.861Z,4.70
2023-04-18T12:43:53.394Z,4.93
2023-04-18T12:44:54.956Z,4.95
2023-04-18T12:45:56.562Z,5.22
2023-04-18T12:46:58.160Z,4.97
2023-04-18T12:47:59.819Z,4.85
2023-04-18T12:49:01.538Z,5.20
2023-04-18T12:50:03.172Z,4.63
2023-04-18T12:51:04.776Z,5.32
2023-04-18T12:52:06.373Z,8.75
2023-04-18T12:53:07.915Z,5.35
2023-04-18T12:54:09.504Z,4.72
2023-04-18T12:55:11.169Z,4.72
2023-04-18T12:56:12.713Z,4.65
2023-04-18T12:57:14.260Z,4.50
2023-04-18T12:58:18.620Z,5.63
2023-04-18T12:59:20.258Z,4.88
2023-04-18T13:00:31.512Z,4.70
2023-04-18T13:01:33.181Z,5.03
2023-04-18T13:02:37.271Z,4.50
2023-04-18T13:03:39.176Z,4.65
2023-04-18T13:04:41.251Z,4.80
2023-04-18T13:05:43.004Z,4.50
2023-04-18T13:06:44.560Z,4.57
2023-04-18T13:07:48.353Z,4.47
2023-04-18T13:08:49.849Z,4.65
2023-04-18T13:09:51.378Z,4.78
2023-04-18T13:10:52.917Z,4.57
2023-04-18T13:11:54.443Z,4.47
2023-04-18T13:12:56.491Z,4.30
2023-04-18T13:13:58.018Z,4.82
2023-04-18T13:14:59.599Z,4.68
2023-04-18T13:16:01.380Z,4.75
2023-04-18T13:17:03.083Z,4.65
2023-04-18T13:18:06.727Z,4.60
2023-04-18T13:19:08.507Z,5.15
2023-04-18T13:20:10.832Z,4.47
2023-04-18T13:21:12.404Z,4.80
2023-04-18T13:22:14.018Z,5.22
2023-04-18T13:23:15.561Z,5.10
2023-04-18T13:24:17.070Z,4.55
2023-04-18T13:25:18.813Z,4.82
2023-04-18T13:26:20.655Z,5.05
2023-04-18T13:27:22.254Z,4.95
2023-04-18T13:28:23.757Z,4.95
2023-04-18T13:29:25.341Z,4.60
2023-04-18T13:30:26.926Z,4.60
2023-04-18T13:31:29.095Z,4.70
2023-04-18T13:32:30.671Z,5.15
2023-04-18T13:33:32.261Z,4.93
2023-04-18T13:34:34.245Z,5.32
2023-04-18T13:35:36.177Z,5.45
2023-04-18T13:36:37.706Z,4.90
2023-04-18T13:37:39.721Z,4.82
2023-04-18T13:38:41.235Z,5.65
2023-04-18T13:39:42.804Z,4.93
2023-04-18T13:40:44.296Z,5.03
2023-04-18T13:41:45.836Z,4.80
2023-04-18T13:42:47.433Z,5.22
2023-04-18T13:43:48.927Z,6.80
2023-04-18T13:44:50.589Z,7.90
2023-04-18T13:45:53.386Z,5.50
2023-04-18T13:46:54.952Z,9.02
2023-04-18T13:47:56.529Z,6.28
2023-04-18T13:48:58.102Z,5.72
2023-04-18T13:49:59.920Z,4.75
2023-04-18T13:51:02.400Z,5.50
2023-04-18T13:52:04.348Z,4.90
2023-04-18T13:53:05.883Z,4.97
2023-04-18T13:54:07.650Z,5.05
2023-04-18T13:55:10.634Z,5.30
2023-04-18T13:56:12.340Z,5.47
2023-04-18T13:57:14.702Z,4.70
2023-04-18T13:58:16.602Z,5.18
2023-04-18T13:59:18.188Z,4.55
2023-04-18T14:00:20.358Z,4.72
2023-04-18T14:01:22.258Z,5.88
2023-04-18T14:02:24.028Z,4.88
2023-04-18T14:03:26.421Z,4.90
2023-04-18T14:04:28.273Z,4.88
2023-04-18T14:05:29.929Z,4.88